sensor_id;sensor_type;location;lat;lon;timestamp;temperature;humidity
69225;DHT22;56333;51.306;17.056;2023-09-19T00:00:22;21.05;72.65
69225;DHT22;56333;51.306;17.056;2023-09-19T00:02:09;21.02;72.70
69225;DHT22;56333;51.306;17.056;2023-09-19T00:03:34;21.02;72.75
69225;DHT22;56333;51.306;17.056;2023-09-19T00:04:59;21.00;72.90
69225;DHT22;56333;51.306;17.056;2023-09-19T00:06:25;21.01;72.97
69225;DHT22;56333;51.306;17.056;2023-09-19T00:07:54;20.99;72.88
69225;DHT22;56333;51.306;17.056;2023-09-19T00:09:20;20.97;73.07
69225;DHT22;56333;51.306;17.056;2023-09-19T00:10:48;20.95;73.10
69225;DHT22;56333;51.306;17.056;2023-09-19T00:12:13;20.95;73.13
69225;DHT22;56333;51.306;17.056;2023-09-19T00:13:37;20.95;73.28
69225;DHT22;56333;51.306;17.056;2023-09-19T00:15:02;20.94;73.35
69225;DHT22;56333;51.306;17.056;2023-09-19T00:16:29;20.94;73.35
69225;DHT22;56333;51.306;17.056;2023-09-19T00:17:54;20.94;73.38
69225;DHT22;56333;51.306;17.056;2023-09-19T00:19:19;20.94;73.40
69225;DHT22;56333;51.306;17.056;2023-09-19T00:20:44;20.94;73.45
69225;DHT22;56333;51.306;17.056;2023-09-19T00:22:11;20.94;73.43
69225;DHT22;56333;51.306;17.056;2023-09-19T00:23:37;20.94;73.68
69225;DHT22;56333;51.306;17.056;2023-09-19T00:25:05;20.93;73.78
69225;DHT22;56333;51.306;17.056;2023-09-19T00:26:32;20.91;73.78
69225;DHT22;56333;51.306;17.056;2023-09-19T00:27:58;20.90;73.70
69225;DHT22;56333;51.306;17.056;2023-09-19T00:29:23;20.90;73.88
69225;DHT22;56333;51.306;17.056;2023-09-19T00:30:51;20.89;73.80
69225;DHT22;56333;51.306;17.056;2023-09-19T00:32:17;20.90;73.90
69225;DHT22;56333;51.306;17.056;2023-09-19T00:33:43;20.89;73.95
69225;DHT22;56333;51.306;17.056;2023-09-19T00:35:11;20.91;73.82
69225;DHT22;56333;51.306;17.056;2023-09-19T00:36:37;20.89;73.82
69225;DHT22;56333;51.306;17.056;2023-09-19T00:38:02;20.89;73.88
69225;DHT22;56333;51.306;17.056;2023-09-19T00:39:28;20.89;73.72
69225;DHT22;56333;51.306;17.056;2023-09-19T00:40:53;20.88;73.78
69225;DHT22;56333;51.306;17.056;2023-09-19T00:42:20;20.86;73.72
69225;DHT22;56333;51.306;17.056;2023-09-19T00:43:44;20.87;73.70
69225;DHT22;56333;51.306;17.056;2023-09-19T00:45:10;20.84;73.63
69225;DHT22;56333;51.306;17.056;2023-09-19T00:46:36;20.84;73.63
69225;DHT22;56333;51.306;17.056;2023-09-19T00:48:00;20.84;73.60
69225;DHT22;56333;51.306;17.056;2023-09-19T00:49:34;20.83;73.63
69225;DHT22;56333;51.306;17.056;2023-09-19T00:51:02;20.82;73.60
69225;DHT22;56333;51.306;17.056;2023-09-19T00:52:28;20.81;73.70
69225;DHT22;56333;51.306;17.056;2023-09-19T00:53:54;20.82;73.72
69225;DHT22;56333;51.306;17.056;2023-09-19T00:55:20;20.83;73.78
69225;DHT22;56333;51.306;17.056;2023-09-19T00:56:47;20.84;73.80
69225;DHT22;56333;51.306;17.056;2023-09-19T00:58:13;20.83;73.75
69225;DHT22;56333;51.306;17.056;2023-09-19T00:59:40;20.85;73.70
69225;DHT22;56333;51.306;17.056;2023-09-19T01:01:04;20.83;73.70
69225;DHT22;56333;51.306;17.056;2023-09-19T01:02:31;20.83;73.68
69225;DHT22;56333;51.306;17.056;2023-09-19T01:03:56;20.85;73.72
69225;DHT22;56333;51.306;17.056;2023-09-19T01:05:22;20.84;73.63
69225;DHT22;56333;51.306;17.056;2023-09-19T01:06:48;20.83;73.60
69225;DHT22;56333;51.306;17.056;2023-09-19T01:08:15;20.83;73.65
69225;DHT22;56333;51.306;17.056;2023-09-19T01:09:41;20.84;73.63
69225;DHT22;56333;51.306;17.056;2023-09-19T01:11:11;20.83;73.60
69225;DHT22;56333;51.306;17.056;2023-09-19T01:12:50;20.84;73.65
69225;DHT22;56333;51.306;17.056;2023-09-19T01:14:37;20.84;73.65
69225;DHT22;56333;51.306;17.056;2023-09-19T01:16:11;20.82;73.57
69225;DHT22;56333;51.306;17.056;2023-09-19T01:17:46;20.80;73.57
69225;DHT22;56333;51.306;17.056;2023-09-19T01:19:47;20.80;73.55
69225;DHT22;56333;51.306;17.056;2023-09-19T01:21:40;20.75;73.68
69225;DHT22;56333;51.306;17.056;2023-09-19T01:23:20;20.75;73.75
69225;DHT22;56333;51.306;17.056;2023-09-19T01:25:26;20.76;73.80
69225;DHT22;56333;51.306;17.056;2023-09-19T01:27:28;20.73;73.97
69225;DHT22;56333;51.306;17.056;2023-09-19T01:29:31;20.72;74.10
69225;DHT22;56333;51.306;17.056;2023-09-19T01:31:02;20.73;74.15
69225;DHT22;56333;51.306;17.056;2023-09-19T01:32:32;20.74;74.13
69225;DHT22;56333;51.306;17.056;2023-09-19T01:33:58;20.76;74.18
69225;DHT22;56333;51.306;17.056;2023-09-19T01:35:26;20.74;74.28
69225;DHT22;56333;51.306;17.056;2023-09-19T01:36:50;20.76;74.38
69225;DHT22;56333;51.306;17.056;2023-09-19T01:38:14;20.76;74.47
69225;DHT22;56333;51.306;17.056;2023-09-19T01:39:42;20.75;74.53
69225;DHT22;56333;51.306;17.056;2023-09-19T01:41:11;20.76;74.70
69225;DHT22;56333;51.306;17.056;2023-09-19T01:42:44;20.76;74.80
69225;DHT22;56333;51.306;17.056;2023-09-19T01:44:25;20.77;74.97
69225;DHT22;56333;51.306;17.056;2023-09-19T01:46:06;20.76;75.28
69225;DHT22;56333;51.306;17.056;2023-09-19T01:47:41;20.75;75.47
69225;DHT22;56333;51.306;17.056;2023-09-19T01:49:22;20.76;75.50
69225;DHT22;56333;51.306;17.056;2023-09-19T01:51:02;20.76;75.68
69225;DHT22;56333;51.306;17.056;2023-09-19T01:52:31;20.76;75.85
69225;DHT22;56333;51.306;17.056;2023-09-19T01:54:02;20.75;75.82
69225;DHT22;56333;51.306;17.056;2023-09-19T01:55:36;20.74;76.07
69225;DHT22;56333;51.306;17.056;2023-09-19T01:57:15;20.71;76.28
69225;DHT22;56333;51.306;17.056;2023-09-19T01:58:53;20.70;76.57
69225;DHT22;56333;51.306;17.056;2023-09-19T02:00:22;20.71;76.80
69225;DHT22;56333;51.306;17.056;2023-09-19T02:01:49;20.69;76.68
69225;DHT22;56333;51.306;17.056;2023-09-19T02:03:15;20.68;76.80
69225;DHT22;56333;51.306;17.056;2023-09-19T02:04:41;20.67;76.90
69225;DHT22;56333;51.306;17.056;2023-09-19T02:06:06;20.66;77.15
69225;DHT22;56333;51.306;17.056;2023-09-19T02:07:33;20.62;77.13
69225;DHT22;56333;51.306;17.056;2023-09-19T02:09:00;20.62;77.32
69225;DHT22;56333;51.306;17.056;2023-09-19T02:10:26;20.59;77.30
69225;DHT22;56333;51.306;17.056;2023-09-19T02:11:50;20.58;77.35
69225;DHT22;56333;51.306;17.056;2023-09-19T02:13:15;20.57;77.43
69225;DHT22;56333;51.306;17.056;2023-09-19T02:14:41;20.53;77.43
69225;DHT22;56333;51.306;17.056;2023-09-19T02:16:05;20.53;77.57
69225;DHT22;56333;51.306;17.056;2023-09-19T02:17:32;20.52;77.75
69225;DHT22;56333;51.306;17.056;2023-09-19T02:18:56;20.53;77.75
69225;DHT22;56333;51.306;17.056;2023-09-19T02:20:22;20.51;78.00
69225;DHT22;56333;51.306;17.056;2023-09-19T02:21:48;20.51;78.05
69225;DHT22;56333;51.306;17.056;2023-09-19T02:23:13;20.52;78.05
69225;DHT22;56333;51.306;17.056;2023-09-19T02:24:41;20.51;78.03
69225;DHT22;56333;51.306;17.056;2023-09-19T02:26:06;20.50;78.00
69225;DHT22;56333;51.306;17.056;2023-09-19T02:27:30;20.49;77.97
69225;DHT22;56333;51.306;17.056;2023-09-19T02:28:55;20.48;77.88
69225;DHT22;56333;51.306;17.056;2023-09-19T02:30:20;20.49;77.82
69225;DHT22;56333;51.306;17.056;2023-09-19T02:31:44;20.50;77.90
69225;DHT22;56333;51.306;17.056;2023-09-19T02:33:10;20.50;78.03
69225;DHT22;56333;51.306;17.056;2023-09-19T02:34:35;20.49;77.95
69225;DHT22;56333;51.306;17.056;2023-09-19T02:36:01;20.46;78.03
69225;DHT22;56333;51.306;17.056;2023-09-19T02:37:26;20.46;78.28
69225;DHT22;56333;51.306;17.056;2023-09-19T02:38:51;20.45;78.40
69225;DHT22;56333;51.306;17.056;2023-09-19T02:40:16;20.44;78.32
69225;DHT22;56333;51.306;17.056;2023-09-19T02:41:41;20.43;78.45
69225;DHT22;56333;51.306;17.056;2023-09-19T02:43:07;20.42;78.47
69225;DHT22;56333;51.306;17.056;2023-09-19T02:44:32;20.41;78.43
69225;DHT22;56333;51.306;17.056;2023-09-19T02:45:57;20.41;78.47
69225;DHT22;56333;51.306;17.056;2023-09-19T02:47:25;20.40;78.50
69225;DHT22;56333;51.306;17.056;2023-09-19T02:48:51;20.39;78.45
69225;DHT22;56333;51.306;17.056;2023-09-19T02:50:17;20.38;78.35
69225;DHT22;56333;51.306;17.056;2023-09-19T02:51:42;20.37;78.43
69225;DHT22;56333;51.306;17.056;2023-09-19T02:53:08;20.36;78.43
69225;DHT22;56333;51.306;17.056;2023-09-19T02:54:35;20.35;78.47
69225;DHT22;56333;51.306;17.056;2023-09-19T02:56:00;20.33;78.47
69225;DHT22;56333;51.306;17.056;2023-09-19T02:57:30;20.34;78.57
69225;DHT22;56333;51.306;17.056;2023-09-19T02:59:08;20.32;78.70
69225;DHT22;56333;51.306;17.056;2023-09-19T03:00:34;20.32;78.80
69225;DHT22;56333;51.306;17.056;2023-09-19T03:01:58;20.32;78.80
69225;DHT22;56333;51.306;17.056;2023-09-19T03:03:25;20.28;78.63
69225;DHT22;56333;51.306;17.056;2023-09-19T03:04:50;20.28;78.70
69225;DHT22;56333;51.306;17.056;2023-09-19T03:06:15;20.27;78.72
69225;DHT22;56333;51.306;17.056;2023-09-19T03:07:42;20.27;78.85
69225;DHT22;56333;51.306;17.056;2023-09-19T03:09:08;20.25;79.00
69225;DHT22;56333;51.306;17.056;2023-09-19T03:10:33;20.25;79.03
69225;DHT22;56333;51.306;17.056;2023-09-19T03:12:00;20.23;79.03
69225;DHT22;56333;51.306;17.056;2023-09-19T03:13:27;20.24;79.00
69225;DHT22;56333;51.306;17.056;2023-09-19T03:14:54;20.23;79.10
69225;DHT22;56333;51.306;17.056;2023-09-19T03:16:18;20.24;79.00
69225;DHT22;56333;51.306;17.056;2023-09-19T03:17:44;20.22;79.00
69225;DHT22;56333;51.306;17.056;2023-09-19T03:19:11;20.23;79.03
69225;DHT22;56333;51.306;17.056;2023-09-19T03:20:38;20.22;79.03
69225;DHT22;56333;51.306;17.056;2023-09-19T03:22:06;20.22;79.00
69225;DHT22;56333;51.306;17.056;2023-09-19T03:23:31;20.22;79.07
69225;DHT22;56333;51.306;17.056;2023-09-19T03:24:56;20.20;79.13
69225;DHT22;56333;51.306;17.056;2023-09-19T03:26:23;20.22;79.15
69225;DHT22;56333;51.306;17.056;2023-09-19T03:27:48;20.23;79.15
69225;DHT22;56333;51.306;17.056;2023-09-19T03:29:13;20.23;79.15
69225;DHT22;56333;51.306;17.056;2023-09-19T03:30:40;20.22;79.10
69225;DHT22;56333;51.306;17.056;2023-09-19T03:32:06;20.23;79.13
69225;DHT22;56333;51.306;17.056;2023-09-19T03:33:32;20.23;79.22
69225;DHT22;56333;51.306;17.056;2023-09-19T03:34:57;20.22;79.22
69225;DHT22;56333;51.306;17.056;2023-09-19T03:36:23;20.23;79.10
69225;DHT22;56333;51.306;17.056;2023-09-19T03:37:51;20.24;79.10
69225;DHT22;56333;51.306;17.056;2023-09-19T03:39:16;20.23;79.10
69225;DHT22;56333;51.306;17.056;2023-09-19T03:40:41;20.25;79.07
69225;DHT22;56333;51.306;17.056;2023-09-19T03:42:08;20.24;79.03
69225;DHT22;56333;51.306;17.056;2023-09-19T03:43:33;20.24;78.95
69225;DHT22;56333;51.306;17.056;2023-09-19T03:44:57;20.23;78.82
69225;DHT22;56333;51.306;17.056;2023-09-19T03:46:23;20.22;78.85
69225;DHT22;56333;51.306;17.056;2023-09-19T03:47:48;20.20;78.90
69225;DHT22;56333;51.306;17.056;2023-09-19T03:49:14;20.19;78.95
69225;DHT22;56333;51.306;17.056;2023-09-19T03:50:38;20.19;79.05
69225;DHT22;56333;51.306;17.056;2023-09-19T03:52:06;20.19;79.03
69225;DHT22;56333;51.306;17.056;2023-09-19T03:53:31;20.20;79.03
69225;DHT22;56333;51.306;17.056;2023-09-19T03:54:56;20.19;78.97
69225;DHT22;56333;51.306;17.056;2023-09-19T03:56:22;20.19;78.80
69225;DHT22;56333;51.306;17.056;2023-09-19T03:57:49;20.19;78.70
69225;DHT22;56333;51.306;17.056;2023-09-19T03:59:15;20.17;78.63
69225;DHT22;56333;51.306;17.056;2023-09-19T04:00:40;20.14;78.57
69225;DHT22;56333;51.306;17.056;2023-09-19T04:02:05;20.11;78.63
69225;DHT22;56333;51.306;17.056;2023-09-19T04:03:34;20.11;78.78
69225;DHT22;56333;51.306;17.056;2023-09-19T04:05:08;20.07;78.70
69225;DHT22;56333;51.306;17.056;2023-09-19T04:06:33;20.06;78.78
69225;DHT22;56333;51.306;17.056;2023-09-19T04:07:58;20.05;78.80
69225;DHT22;56333;51.306;17.056;2023-09-19T04:09:23;20.03;78.80
69225;DHT22;56333;51.306;17.056;2023-09-19T04:10:49;20.01;78.72
69225;DHT22;56333;51.306;17.056;2023-09-19T04:12:15;19.97;78.90
69225;DHT22;56333;51.306;17.056;2023-09-19T04:13:41;19.94;79.05
69225;DHT22;56333;51.306;17.056;2023-09-19T04:15:07;19.92;79.07
69225;DHT22;56333;51.306;17.056;2023-09-19T04:16:35;19.90;79.32
69225;DHT22;56333;51.306;17.056;2023-09-19T04:18:01;19.88;79.32
69225;DHT22;56333;51.306;17.056;2023-09-19T04:19:28;19.87;79.40
69225;DHT22;56333;51.306;17.056;2023-09-19T04:20:53;19.84;79.65
69225;DHT22;56333;51.306;17.056;2023-09-19T04:22:18;19.83;79.65
69225;DHT22;56333;51.306;17.056;2023-09-19T04:23:43;19.84;79.72
69225;DHT22;56333;51.306;17.056;2023-09-19T04:25:08;19.82;79.85
69225;DHT22;56333;51.306;17.056;2023-09-19T04:26:32;19.82;79.85
69225;DHT22;56333;51.306;17.056;2023-09-19T04:27:57;19.82;79.93
69225;DHT22;56333;51.306;17.056;2023-09-19T04:29:22;19.80;80.03
69225;DHT22;56333;51.306;17.056;2023-09-19T04:30:49;19.79;80.07
69225;DHT22;56333;51.306;17.056;2023-09-19T04:32:14;19.78;80.18
69225;DHT22;56333;51.306;17.056;2023-09-19T04:33:40;19.77;80.20
69225;DHT22;56333;51.306;17.056;2023-09-19T04:35:07;19.75;80.28
69225;DHT22;56333;51.306;17.056;2023-09-19T04:36:33;19.75;80.43
69225;DHT22;56333;51.306;17.056;2023-09-19T04:37:59;19.75;80.40
69225;DHT22;56333;51.306;17.056;2023-09-19T04:39:25;19.74;80.38
69225;DHT22;56333;51.306;17.056;2023-09-19T04:40:50;19.74;80.40
69225;DHT22;56333;51.306;17.056;2023-09-19T04:42:21;19.73;80.43
69225;DHT22;56333;51.306;17.056;2023-09-19T04:43:47;19.71;80.45
69225;DHT22;56333;51.306;17.056;2023-09-19T04:45:13;19.70;80.47
69225;DHT22;56333;51.306;17.056;2023-09-19T04:46:38;19.70;80.47
69225;DHT22;56333;51.306;17.056;2023-09-19T04:48:04;19.70;80.40
69225;DHT22;56333;51.306;17.056;2023-09-19T04:49:31;19.67;80.47
69225;DHT22;56333;51.306;17.056;2023-09-19T04:50:57;19.68;80.47
69225;DHT22;56333;51.306;17.056;2023-09-19T04:52:22;19.70;80.53
69225;DHT22;56333;51.306;17.056;2023-09-19T04:53:46;19.70;80.55
69225;DHT22;56333;51.306;17.056;2023-09-19T04:55:12;19.67;80.57
69225;DHT22;56333;51.306;17.056;2023-09-19T04:56:39;19.67;80.60
69225;DHT22;56333;51.306;17.056;2023-09-19T04:58:05;19.66;80.63
69225;DHT22;56333;51.306;17.056;2023-09-19T04:59:30;19.65;80.65
69225;DHT22;56333;51.306;17.056;2023-09-19T05:00:55;19.67;80.65
69225;DHT22;56333;51.306;17.056;2023-09-19T05:02:21;19.66;80.57
69225;DHT22;56333;51.306;17.056;2023-09-19T05:03:47;19.65;80.60
69225;DHT22;56333;51.306;17.056;2023-09-19T05:05:14;19.65;80.60
69225;DHT22;56333;51.306;17.056;2023-09-19T05:06:39;19.65;80.55
69225;DHT22;56333;51.306;17.056;2023-09-19T05:08:05;19.66;80.50
69225;DHT22;56333;51.306;17.056;2023-09-19T05:09:31;19.65;80.57
69225;DHT22;56333;51.306;17.056;2023-09-19T05:10:57;19.65;80.50
69225;DHT22;56333;51.306;17.056;2023-09-19T05:12:23;19.66;80.50
69225;DHT22;56333;51.306;17.056;2023-09-19T05:13:49;19.66;80.50
69225;DHT22;56333;51.306;17.056;2023-09-19T05:15:14;19.67;80.40
69225;DHT22;56333;51.306;17.056;2023-09-19T05:16:39;19.68;80.50
69225;DHT22;56333;51.306;17.056;2023-09-19T05:18:05;19.67;80.38
69225;DHT22;56333;51.306;17.056;2023-09-19T05:19:30;19.67;80.43
69225;DHT22;56333;51.306;17.056;2023-09-19T05:20:56;19.69;80.43
69225;DHT22;56333;51.306;17.056;2023-09-19T05:22:21;19.69;80.40
69225;DHT22;56333;51.306;17.056;2023-09-19T05:23:51;19.72;80.40
69225;DHT22;56333;51.306;17.056;2023-09-19T05:25:16;19.74;80.40
69225;DHT22;56333;51.306;17.056;2023-09-19T05:26:45;19.77;80.38
69225;DHT22;56333;51.306;17.056;2023-09-19T05:28:10;19.79;80.18
69225;DHT22;56333;51.306;17.056;2023-09-19T05:29:37;19.82;80.18
69225;DHT22;56333;51.306;17.056;2023-09-19T05:31:02;19.83;80.10
69225;DHT22;56333;51.306;17.056;2023-09-19T05:32:26;19.85;80.13
69225;DHT22;56333;51.306;17.056;2023-09-19T05:33:51;19.85;79.97
69225;DHT22;56333;51.306;17.056;2023-09-19T05:35:17;19.85;79.95
69225;DHT22;56333;51.306;17.056;2023-09-19T05:36:43;19.85;79.90
69225;DHT22;56333;51.306;17.056;2023-09-19T05:38:08;19.87;79.85
69225;DHT22;56333;51.306;17.056;2023-09-19T05:39:36;19.89;79.88
69225;DHT22;56333;51.306;17.056;2023-09-19T05:41:00;19.92;79.88
69225;DHT22;56333;51.306;17.056;2023-09-19T05:42:25;19.96;79.80
69225;DHT22;56333;51.306;17.056;2023-09-19T05:43:50;20.01;79.72
69225;DHT22;56333;51.306;17.056;2023-09-19T05:45:15;20.06;79.72
69225;DHT22;56333;51.306;17.056;2023-09-19T05:46:44;20.12;79.65
69225;DHT22;56333;51.306;17.056;2023-09-19T05:48:11;20.17;79.50
69225;DHT22;56333;51.306;17.056;2023-09-19T05:49:37;20.22;79.35
69225;DHT22;56333;51.306;17.056;2023-09-19T05:51:02;20.27;79.13
69225;DHT22;56333;51.306;17.056;2023-09-19T05:52:27;20.31;79.00
69225;DHT22;56333;51.306;17.056;2023-09-19T05:53:52;20.32;78.88
69225;DHT22;56333;51.306;17.056;2023-09-19T05:55:17;20.36;78.85
69225;DHT22;56333;51.306;17.056;2023-09-19T05:56:42;20.39;78.82
69225;DHT22;56333;51.306;17.056;2023-09-19T05:58:09;20.44;78.82
69225;DHT22;56333;51.306;17.056;2023-09-19T05:59:36;20.47;78.65
69225;DHT22;56333;51.306;17.056;2023-09-19T06:01:02;20.51;78.50
69225;DHT22;56333;51.306;17.056;2023-09-19T06:02:26;20.56;78.35
69225;DHT22;56333;51.306;17.056;2023-09-19T06:03:52;20.60;78.10
69225;DHT22;56333;51.306;17.056;2023-09-19T06:05:17;20.66;78.00
69225;DHT22;56333;51.306;17.056;2023-09-19T06:06:41;20.69;77.88
69225;DHT22;56333;51.306;17.056;2023-09-19T06:08:07;20.74;77.72
69225;DHT22;56333;51.306;17.056;2023-09-19T06:09:32;20.78;77.65
69225;DHT22;56333;51.306;17.056;2023-09-19T06:10:56;20.84;77.45
69225;DHT22;56333;51.306;17.056;2023-09-19T06:12:21;20.90;77.10
69225;DHT22;56333;51.306;17.056;2023-09-19T06:13:46;20.93;76.88
69225;DHT22;56333;51.306;17.056;2023-09-19T06:15:12;20.96;76.65
69225;DHT22;56333;51.306;17.056;2023-09-19T06:16:38;20.98;76.63
69225;DHT22;56333;51.306;17.056;2023-09-19T06:18:04;20.97;76.07
69225;DHT22;56333;51.306;17.056;2023-09-19T06:19:37;20.96;75.90
69225;DHT22;56333;51.306;17.056;2023-09-19T06:21:02;20.97;75.97
69225;DHT22;56333;51.306;17.056;2023-09-19T06:22:29;20.97;75.88
69225;DHT22;56333;51.306;17.056;2023-09-19T06:23:55;20.95;75.82
69225;DHT22;56333;51.306;17.056;2023-09-19T06:25:20;20.97;75.90
69225;DHT22;56333;51.306;17.056;2023-09-19T06:26:45;20.98;75.82
69225;DHT22;56333;51.306;17.056;2023-09-19T06:28:11;20.97;75.63
69225;DHT22;56333;51.306;17.056;2023-09-19T06:29:37;20.98;75.47
69225;DHT22;56333;51.306;17.056;2023-09-19T06:31:03;20.93;75.40
69225;DHT22;56333;51.306;17.056;2023-09-19T06:32:31;20.92;75.35
69225;DHT22;56333;51.306;17.056;2023-09-19T06:33:56;20.88;75.32
69225;DHT22;56333;51.306;17.056;2023-09-19T06:35:21;20.86;75.25
69225;DHT22;56333;51.306;17.056;2023-09-19T06:36:48;20.88;75.25
69225;DHT22;56333;51.306;17.056;2023-09-19T06:38:14;20.89;75.03
69225;DHT22;56333;51.306;17.056;2023-09-19T06:39:40;20.89;74.95
69225;DHT22;56333;51.306;17.056;2023-09-19T06:41:04;20.90;74.70
69225;DHT22;56333;51.306;17.056;2023-09-19T06:42:29;20.88;74.50
69225;DHT22;56333;51.306;17.056;2023-09-19T06:43:54;20.85;74.32
69225;DHT22;56333;51.306;17.056;2023-09-19T06:45:18;20.82;74.05
69225;DHT22;56333;51.306;17.056;2023-09-19T06:46:43;20.78;74.07
69225;DHT22;56333;51.306;17.056;2023-09-19T06:48:19;20.74;74.15
69225;DHT22;56333;51.306;17.056;2023-09-19T06:49:44;20.68;74.15
69225;DHT22;56333;51.306;17.056;2023-09-19T06:51:10;20.66;74.18
69225;DHT22;56333;51.306;17.056;2023-09-19T06:52:37;20.62;74.00
69225;DHT22;56333;51.306;17.056;2023-09-19T06:54:02;20.58;73.95
69225;DHT22;56333;51.306;17.056;2023-09-19T06:55:28;20.54;73.97
69225;DHT22;56333;51.306;17.056;2023-09-19T06:56:54;20.50;74.00
69225;DHT22;56333;51.306;17.056;2023-09-19T06:58:20;20.45;74.03
69225;DHT22;56333;51.306;17.056;2023-09-19T06:59:45;20.44;74.20
69225;DHT22;56333;51.306;17.056;2023-09-19T07:01:10;20.41;74.25
69225;DHT22;56333;51.306;17.056;2023-09-19T07:02:37;20.40;74.28
69225;DHT22;56333;51.306;17.056;2023-09-19T07:04:05;20.41;74.43
69225;DHT22;56333;51.306;17.056;2023-09-19T07:05:30;20.43;74.45
69225;DHT22;56333;51.306;17.056;2023-09-19T07:06:55;20.46;74.25
69225;DHT22;56333;51.306;17.056;2023-09-19T07:08:23;20.49;74.13
69225;DHT22;56333;51.306;17.056;2023-09-19T07:09:51;20.54;74.30
69225;DHT22;56333;51.306;17.056;2023-09-19T07:11:16;20.59;74.32
69225;DHT22;56333;51.306;17.056;2023-09-19T07:12:42;20.63;74.30
69225;DHT22;56333;51.306;17.056;2023-09-19T07:14:07;20.69;74.32
69225;DHT22;56333;51.306;17.056;2023-09-19T07:15:34;20.74;74.32
69225;DHT22;56333;51.306;17.056;2023-09-19T07:17:01;20.77;74.30
69225;DHT22;56333;51.306;17.056;2023-09-19T07:18:26;20.83;74.22
69225;DHT22;56333;51.306;17.056;2023-09-19T07:19:51;20.88;74.15
69225;DHT22;56333;51.306;17.056;2023-09-19T07:21:16;20.92;73.80
69225;DHT22;56333;51.306;17.056;2023-09-19T07:22:40;20.98;73.75
69225;DHT22;56333;51.306;17.056;2023-09-19T07:24:06;21.04;73.72
69225;DHT22;56333;51.306;17.056;2023-09-19T07:25:31;21.07;73.78
69225;DHT22;56333;51.306;17.056;2023-09-19T07:26:55;21.08;73.10
69225;DHT22;56333;51.306;17.056;2023-09-19T07:28:20;21.08;73.28
69225;DHT22;56333;51.306;17.056;2023-09-19T07:29:44;21.12;73.30
69225;DHT22;56333;51.306;17.056;2023-09-19T07:31:10;21.14;73.22
69225;DHT22;56333;51.306;17.056;2023-09-19T07:32:36;21.19;73.00
69225;DHT22;56333;51.306;17.056;2023-09-19T07:34:01;21.29;73.07
69225;DHT22;56333;51.306;17.056;2023-09-19T07:35:27;21.36;72.80
69225;DHT22;56333;51.306;17.056;2023-09-19T07:36:51;21.44;72.72
69225;DHT22;56333;51.306;17.056;2023-09-19T07:38:16;21.52;72.45
69225;DHT22;56333;51.306;17.056;2023-09-19T07:39:41;21.58;72.20
69225;DHT22;56333;51.306;17.056;2023-09-19T07:41:06;21.64;71.95
69225;DHT22;56333;51.306;17.056;2023-09-19T07:42:31;21.65;71.60
69225;DHT22;56333;51.306;17.056;2023-09-19T07:43:57;21.67;71.45
69225;DHT22;56333;51.306;17.056;2023-09-19T07:45:26;21.69;71.28
69225;DHT22;56333;51.306;17.056;2023-09-19T07:46:52;21.69;71.20
69225;DHT22;56333;51.306;17.056;2023-09-19T07:48:17;21.73;71.22
69225;DHT22;56333;51.306;17.056;2023-09-19T07:49:41;21.79;71.07
69225;DHT22;56333;51.306;17.056;2023-09-19T07:51:09;21.81;70.65
69225;DHT22;56333;51.306;17.056;2023-09-19T07:52:34;21.84;70.43
69225;DHT22;56333;51.306;17.056;2023-09-19T07:53:58;21.88;70.43
69225;DHT22;56333;51.306;17.056;2023-09-19T07:55:23;21.92;70.18
69225;DHT22;56333;51.306;17.056;2023-09-19T07:56:48;21.94;70.28
69225;DHT22;56333;51.306;17.056;2023-09-19T07:58:13;21.97;70.28
69225;DHT22;56333;51.306;17.056;2023-09-19T07:59:38;22.00;70.05
69225;DHT22;56333;51.306;17.056;2023-09-19T08:01:05;22.05;70.03
69225;DHT22;56333;51.306;17.056;2023-09-19T08:02:35;22.06;69.60
69225;DHT22;56333;51.306;17.056;2023-09-19T08:04:00;22.05;69.10
69225;DHT22;56333;51.306;17.056;2023-09-19T08:05:25;22.06;69.10
69225;DHT22;56333;51.306;17.056;2023-09-19T08:06:50;22.04;69.05
69225;DHT22;56333;51.306;17.056;2023-09-19T08:08:18;22.00;68.93
69225;DHT22;56333;51.306;17.056;2023-09-19T08:09:43;21.94;68.45
69225;DHT22;56333;51.306;17.056;2023-09-19T08:11:10;21.92;68.75
69225;DHT22;56333;51.306;17.056;2023-09-19T08:12:34;21.89;68.78
69225;DHT22;56333;51.306;17.056;2023-09-19T08:13:59;21.83;68.82
69225;DHT22;56333;51.306;17.056;2023-09-19T08:15:24;21.78;68.90
69225;DHT22;56333;51.306;17.056;2023-09-19T08:16:49;21.77;69.07
69225;DHT22;56333;51.306;17.056;2023-09-19T08:18:13;21.74;69.22
69225;DHT22;56333;51.306;17.056;2023-09-19T08:19:38;21.73;69.45
69225;DHT22;56333;51.306;17.056;2023-09-19T08:21:04;21.75;69.63
69225;DHT22;56333;51.306;17.056;2023-09-19T08:22:30;21.73;69.53
69225;DHT22;56333;51.306;17.056;2023-09-19T08:23:54;21.74;69.38
69225;DHT22;56333;51.306;17.056;2023-09-19T08:25:20;21.71;69.40
69225;DHT22;56333;51.306;17.056;2023-09-19T08:26:45;21.75;69.38
69225;DHT22;56333;51.306;17.056;2023-09-19T08:28:13;21.78;69.50
69225;DHT22;56333;51.306;17.056;2023-09-19T08:29:41;21.85;69.50
69225;DHT22;56333;51.306;17.056;2023-09-19T08:31:06;21.86;69.20
69225;DHT22;56333;51.306;17.056;2023-09-19T08:32:31;21.88;69.10
69225;DHT22;56333;51.306;17.056;2023-09-19T08:33:56;21.92;69.05
69225;DHT22;56333;51.306;17.056;2023-09-19T08:35:20;21.93;69.07
69225;DHT22;56333;51.306;17.056;2023-09-19T08:36:46;21.99;69.03
69225;DHT22;56333;51.306;17.056;2023-09-19T08:38:10;22.02;68.93
69225;DHT22;56333;51.306;17.056;2023-09-19T08:39:37;22.06;68.95
69225;DHT22;56333;51.306;17.056;2023-09-19T08:41:05;22.12;68.75
69225;DHT22;56333;51.306;17.056;2023-09-19T08:42:30;22.14;68.55
69225;DHT22;56333;51.306;17.056;2023-09-19T08:43:57;22.17;68.57
69225;DHT22;56333;51.306;17.056;2023-09-19T08:45:24;22.17;68.25
69225;DHT22;56333;51.306;17.056;2023-09-19T08:46:50;22.17;68.25
69225;DHT22;56333;51.306;17.056;2023-09-19T08:48:26;22.23;68.47
69225;DHT22;56333;51.306;17.056;2023-09-19T08:49:56;22.28;68.43
69225;DHT22;56333;51.306;17.056;2023-09-19T08:51:42;22.31;68.15
69225;DHT22;56333;51.306;17.056;2023-09-19T08:53:10;22.38;67.95
69225;DHT22;56333;51.306;17.056;2023-09-19T08:54:40;22.42;67.43
69225;DHT22;56333;51.306;17.056;2023-09-19T08:56:06;22.48;67.32
69225;DHT22;56333;51.306;17.056;2023-09-19T08:57:35;22.52;67.05
69225;DHT22;56333;51.306;17.056;2023-09-19T08:59:04;22.55;66.93
69225;DHT22;56333;51.306;17.056;2023-09-19T09:00:29;22.54;66.63